Time;durP1;ratioP1;P1;durP2;ratioP2;P2;SDS_P1;SDS_P2;PMS_P1;PMS_P2;Temp;Humidity;BMP_temperature;BMP_pressure;BME280_temperature;BME280_humidity;BME280_pressure;Samples;Min_cycle;Max_cycle;Signal;HPM_P1;HPM_P2
2022/10/25 00:01:48;;;;;;;19.05;14.00;;;12.30;99.90;;;;;;5132952;27;20043;-66
2022/10/25 00:04:15;;;;;;;19.88;13.98;;;12.30;99.90;;;;;;5151496;27;20039;-66
2022/10/25 00:06:41;;;;;;;21.27;14.13;;;12.30;99.90;;;;;;5124356;27;20062;-66
2022/10/25 00:09:07;;;;;;;20.52;13.90;;;12.20;99.90;;;;;;5151506;27;20126;-66
2022/10/25 00:11:33;;;;;;;17.40;13.73;;;12.30;99.90;;;;;;5132562;27;20320;-65
2022/10/25 00:14:03;;;;;;;18.60;13.00;;;12.20;99.90;;;;;;5132804;27;20058;-67
2022/10/25 00:16:32;;;;;;;17.00;12.55;;;12.20;99.90;;;;;;5116860;27;20336;-66
2022/10/25 00:18:57;;;;;;;19.83;13.02;;;12.20;99.90;;;;;;5132791;27;20096;-66
2022/10/25 00:21:23;;;;;;;16.65;12.20;;;12.20;99.90;;;;;;5135008;27;20039;-67
2022/10/25 00:23:50;;;;;;;18.30;11.85;;;12.10;99.90;;;;;;5138508;27;20091;-66
2022/10/25 00:26:16;;;;;;;15.05;12.15;;;12.20;99.90;;;;;;5146477;27;20030;-66
2022/10/25 00:28:42;;;;;;;16.95;11.30;;;12.10;99.90;;;;;;5132666;27;20041;-66
2022/10/25 00:31:13;;;;;;;17.02;11.07;;;12.10;99.90;;;;;;5132381;27;20043;-66
2022/10/25 00:33:39;;;;;;;16.08;11.35;;;12.20;99.90;;;;;;5151281;27;20082;-67
2022/10/25 00:36:08;;;;;;;18.52;10.88;;;12.20;99.90;;;;;;5143275;27;20035;-66
2022/10/25 00:38:34;;;;;;;18.80;11.98;;;12.20;99.90;;;;;;5151313;27;20054;-66
2022/10/25 00:41:00;;;;;;;18.13;11.00;;;12.20;99.90;;;;;;5150914;27;20099;-66
2022/10/25 00:43:41;;;;;;;14.55;10.23;;;12.20;99.90;;;;;;5132781;27;20499;-66
2022/10/25 00:46:10;;;;;;;14.27;10.35;;;12.30;99.90;;;;;;5110694;27;20110;-66
2022/10/25 00:48:36;;;;;;;19.08;11.60;;;12.30;99.90;;;;;;5146151;27;20476;-68
2022/10/25 00:51:02;;;;;;;16.80;10.45;;;12.40;99.90;;;;;;5150987;27;20031;-66
2022/10/25 00:53:33;;;;;;;15.13;9.90;;;12.40;99.90;;;;;;5144118;27;20070;-68
2022/10/25 00:56:15;;;;;;;21.27;11.30;;;12.50;99.90;;;;;;5113436;27;20039;-67
2022/10/25 00:58:46;;;;;;;15.52;9.93;;;12.50;99.90;;;;;;5155068;27;20109;-67
2022/10/25 01:01:13;;;;;;;15.48;10.23;;;12.60;99.90;;;;;;5118883;27;20058;-66
2022/10/25 01:03:41;;;;;;;18.90;9.68;;;12.50;99.90;;;;;;5136023;27;20464;-67
2022/10/25 01:06:13;;;;;;;14.10;9.80;;;12.60;99.90;;;;;;5110403;27;20150;-67
2022/10/25 01:08:41;;;;;;;17.00;10.25;;;12.60;99.90;;;;;;5154536;27;20046;-66
2022/10/25 01:11:07;;;;;;;12.48;9.20;;;12.70;99.90;;;;;;5135362;27;20131;-66
2022/10/25 01:13:34;;;;;;;15.70;9.43;;;12.60;99.90;;;;;;5154179;27;20087;-67
2022/10/25 01:16:38;;;;;;;15.05;9.25;;;12.70;99.90;;;;;;5121455;27;20043;-67
2022/10/25 01:19:09;;;;;;;16.98;9.30;;;12.70;99.90;;;;;;5134410;27;20043;-66
2022/10/25 01:21:38;;;;;;;15.50;8.98;;;12.70;99.90;;;;;;5153929;27;20030;-66
2022/10/25 01:24:27;;;;;;;13.68;9.02;;;12.70;99.90;;;;;;5154136;27;20118;-66
2022/10/25 01:27:09;;;;;;;13.43;9.15;;;12.70;99.90;;;;;;5152406;27;20039;-67
2022/10/25 01:29:54;;;;;;;16.48;9.15;;;12.70;99.90;;;;;;5153818;27;20455;-66
2022/10/25 01:32:44;;;;;;;15.05;8.93;;;12.70;99.90;;;;;;5109844;27;20042;-66
2022/10/25 01:35:18;;;;;;;14.07;9.15;;;12.70;99.90;;;;;;5127893;27;20046;-67
2022/10/25 01:38:13;;;;;;;14.85;9.52;;;12.70;99.90;;;;;;5135094;27;20031;-67
2022/10/25 01:41:10;;;;;;;18.50;8.88;;;12.80;99.90;;;;;;5134853;27;20444;-67
2022/10/25 01:44:09;;;;;;;15.07;9.40;;;12.80;99.90;;;;;;5135255;27;20443;-66
2022/10/25 01:47:04;;;;;;;13.13;8.85;;;12.90;99.90;;;;;;5121773;27;20075;-66
2022/10/25 01:49:56;;;;;;;15.93;10.05;;;12.90;99.90;;;;;;5153659;27;20118;-67
2022/10/25 01:52:23;;;;;;;13.18;8.80;;;12.90;99.90;;;;;;5153131;27;20561;-67
2022/10/25 01:54:49;;;;;;;11.45;8.60;;;13.00;99.90;;;;;;5128536;27;20050;-66
2022/10/25 01:57:26;;;;;;;13.05;9.10;;;13.00;99.90;;;;;;5137800;27;20034;-67
2022/10/25 02:00:16;;;;;;;13.77;9.48;;;13.00;99.90;;;;;;5125570;27;20106;-66
2022/10/25 02:02:54;;;;;;;15.40;9.23;;;13.00;99.90;;;;;;5135134;27;20042;-67
2022/10/25 02:05:47;;;;;;;14.05;9.38;;;13.10;99.90;;;;;;5138237;27;20111;-67
2022/10/25 02:08:27;;;;;;;15.48;10.27;;;13.10;99.90;;;;;;5118507;27;20599;-66
2022/10/25 02:10:58;;;;;;;16.02;9.73;;;13.10;99.90;;;;;;5152935;27;20058;-66
2022/10/25 02:13:52;;;;;;;14.32;8.80;;;13.20;99.90;;;;;;5152728;27;20042;-66
2022/10/25 02:16:25;;;;;;;14.18;9.68;;;13.20;99.90;;;;;;5071965;27;20176;-66
2022/10/25 02:18:56;;;;;;;18.48;10.80;;;13.10;99.90;;;;;;5134481;27;20045;-66
2022/10/25 02:21:24;;;;;;;16.33;10.27;;;13.20;99.90;;;;;;5133785;27;20038;-66
2022/10/25 02:23:52;;;;;;;16.80;10.23;;;13.20;99.90;;;;;;5152510;27;20473;-67
2022/10/25 02:26:19;;;;;;;18.58;11.50;;;13.20;99.90;;;;;;5150140;27;20130;-66
2022/10/25 02:28:45;;;;;;;17.10;10.45;;;13.20;99.90;;;;;;5152779;27;20349;-67
2022/10/25 02:31:15;;;;;;;14.85;9.93;;;13.20;99.90;;;;;;5152508;27;20120;-66
2022/10/25 02:33:44;;;;;;;19.85;10.70;;;13.20;99.90;;;;;;5113685;27;20062;-67
2022/10/25 02:36:20;;;;;;;16.38;10.35;;;13.10;99.90;;;;;;5128359;27;20043;-67
2022/10/25 02:38:48;;;;;;;16.02;9.98;;;13.10;99.90;;;;;;5151095;27;20034;-67
2022/10/25 02:41:14;;;;;;;17.02;10.10;;;13.10;99.90;;;;;;5133635;27;20039;-66
2022/10/25 02:43:40;;;;;;;16.17;11.32;;;13.00;99.90;;;;;;5133986;27;20038;-66
2022/10/25 02:46:11;;;;;;;16.48;10.15;;;13.00;99.90;;;;;;5136671;27;20392;-66
2022/10/25 02:48:37;;;;;;;16.73;9.90;;;13.00;99.90;;;;;;5134101;27;20134;-66
2022/10/25 02:51:04;;;;;;;17.83;10.60;;;13.00;99.90;;;;;;5152149;27;20107;-66
2022/10/25 02:53:31;;;;;;;17.35;10.93;;;12.90;99.90;;;;;;5116787;27;20047;-66
2022/10/25 02:56:09;;;;;;;20.05;11.48;;;12.90;99.90;;;;;;5112912;27;20147;-66
2022/10/25 02:58:39;;;;;;;18.58;10.65;;;12.90;99.90;;;;;;5150849;27;20133;-66
2022/10/25 03:01:05;;;;;;;20.10;11.07;;;12.90;99.90;;;;;;5144508;27;20117;-67
2022/10/25 03:03:31;;;;;;;16.60;11.55;;;13.00;99.90;;;;;;5125382;27;20077;-66
2022/10/25 03:05:57;;;;;;;17.65;11.30;;;13.00;99.90;;;;;;5122031;27;20068;-66
2022/10/25 03:08:23;;;;;;;16.13;10.63;;;13.00;99.90;;;;;;5151353;27;20431;-67
2022/10/25 03:10:50;;;;;;;19.02;11.05;;;13.00;99.90;;;;;;5151952;27;20039;-68
2022/10/25 03:13:16;;;;;;;22.42;11.52;;;12.90;99.90;;;;;;5151775;27;20073;-66
2022/10/25 03:15:42;;;;;;;17.40;11.18;;;13.00;99.90;;;;;;5131719;27;20432;-66
2022/10/25 03:18:08;;;;;;;19.73;11.52;;;12.90;99.90;;;;;;5145682;27;20046;-65
2022/10/25 03:20:34;;;;;;;18.40;10.55;;;12.90;99.90;;;;;;5151908;27;20038;-66
2022/10/25 03:22:59;;;;;;;18.45;10.90;;;12.90;99.90;;;;;;5151918;27;20098;-66
2022/10/25 03:25:25;;;;;;;19.25;10.95;;;13.10;99.90;;;;;;5125061;27;20085;-66
2022/10/25 03:27:50;;;;;;;18.63;11.23;;;13.00;99.90;;;;;;5144530;27;20137;-66
2022/10/25 03:30:16;;;;;;;20.27;11.73;;;13.00;99.90;;;;;;5151197;27;20065;-66
2022/10/25 03:32:42;;;;;;;23.73;12.65;;;13.00;99.90;;;;;;5151981;27;20030;-66
2022/10/25 03:35:08;;;;;;;17.13;10.93;;;13.00;99.90;;;;;;5125313;27;20406;-66
2022/10/25 03:37:33;;;;;;;20.13;11.00;;;12.90;99.90;;;;;;5135888;27;20026;-67
2022/10/25 03:39:59;;;;;;;19.75;11.48;;;12.90;99.90;;;;;;5151814;27;20035;-66
2022/10/25 03:42:24;;;;;;;19.95;11.60;;;12.90;99.90;;;;;;5151425;27;20046;-66
2022/10/25 03:44:50;;;;;;;19.42;11.15;;;12.70;99.90;;;;;;5128229;27;20091;-66
2022/10/25 03:47:16;;;;;;;16.52;11.00;;;12.80;99.90;;;;;;5107897;27;20631;-66
2022/10/25 03:49:42;;;;;;;19.50;11.82;;;12.90;99.90;;;;;;5151635;27;20299;-66
2022/10/25 03:52:08;;;;;;;19.00;11.10;;;12.80;99.90;;;;;;5151400;27;20523;-66
2022/10/25 03:54:34;;;;;;;18.67;11.15;;;12.90;99.90;;;;;;5150632;27;20383;-67
2022/10/25 03:57:00;;;;;;;20.38;11.75;;;12.90;99.90;;;;;;5141560;27;20070;-66
2022/10/25 03:59:26;;;;;;;17.83;11.23;;;12.90;99.90;;;;;;5132616;27;20068;-66
2022/10/25 04:01:52;;;;;;;20.92;11.75;;;12.90;99.90;;;;;;5132927;27;20169;-66
2022/10/25 04:04:18;;;;;;;17.77;10.95;;;12.90;99.90;;;;;;5151494;27;20447;-66
2022/10/25 04:06:43;;;;;;;18.50;11.23;;;12.90;99.90;;;;;;5103243;28;20465;-67
2022/10/25 04:09:09;;;;;;;25.70;11.48;;;13.00;99.90;;;;;;5144146;27;20039;-66
2022/10/25 04:11:35;;;;;;;24.13;11.15;;;13.00;99.90;;;;;;5151185;27;20428;-66
2022/10/25 04:14:00;;;;;;;19.42;10.65;;;13.00;99.90;;;;;;5151141;27;20132;-66
2022/10/25 04:16:26;;;;;;;20.42;10.05;;;13.00;99.90;;;;;;5106889;27;20476;-67
2022/10/25 04:18:52;;;;;;;23.63;10.57;;;12.90;99.90;;;;;;5151740;27;20615;-67
2022/10/25 04:21:20;;;;;;;19.23;10.10;;;12.90;99.90;;;;;;5135574;27;20110;-66
2022/10/25 04:23:45;;;;;;;19.85;10.65;;;12.90;99.90;;;;;;5136651;27;20026;-67
2022/10/25 04:26:16;;;;;;;17.75;9.85;;;12.90;99.90;;;;;;5154214;27;20035;-66
2022/10/25 04:28:42;;;;;;;35.30;10.90;;;12.80;99.90;;;;;;5154952;27;20447;-66
2022/10/25 04:31:07;;;;;;;15.80;9.43;;;12.80;99.90;;;;;;5136406;27;20053;-66
2022/10/25 04:33:33;;;;;;;17.90;9.00;;;12.80;99.90;;;;;;5155199;27;20026;-65
2022/10/25 04:35:58;;;;;;;20.38;9.50;;;12.90;99.90;;;;;;5151046;27;20039;-67
2022/10/25 04:38:24;;;;;;;17.80;8.43;;;12.80;99.90;;;;;;5155293;27;20486;-66
2022/10/25 04:40:58;;;;;;;15.52;8.20;;;12.80;99.90;;;;;;5136250;27;20112;-66
2022/10/25 04:43:25;;;;;;;16.15;8.20;;;12.80;99.90;;;;;;5136879;27;20039;-66
2022/10/25 04:45:51;;;;;;;16.05;8.45;;;12.70;99.90;;;;;;5127254;27;20049;-67
2022/10/25 04:48:16;;;;;;;13.02;7.30;;;12.80;99.90;;;;;;5113970;27;20040;-67
2022/10/25 04:50:42;;;;;;;18.42;8.10;;;12.70;99.90;;;;;;5113609;27;20043;-66
2022/10/25 04:53:08;;;;;;;13.23;7.78;;;12.70;99.90;;;;;;5131953;27;20118;-67
2022/10/25 04:55:34;;;;;;;16.27;7.82;;;12.70;99.90;;;;;;5129148;27;20079;-67
2022/10/25 04:58:00;;;;;;;13.98;7.47;;;12.60;99.90;;;;;;5132551;27;20081;-66
2022/10/25 05:00:26;;;;;;;17.73;7.75;;;12.60;99.90;;;;;;5110714;27;20141;-65
2022/10/25 05:02:55;;;;;;;18.88;7.10;;;12.70;99.90;;;;;;5134287;27;20050;-66
2022/10/25 05:05:22;;;;;;;16.13;7.20;;;12.70;99.90;;;;;;5129824;27;20122;-66
2022/10/25 05:07:48;;;;;;;14.63;7.47;;;12.70;99.90;;;;;;5108491;27;20047;-67
2022/10/25 05:10:13;;;;;;;15.93;7.40;;;12.70;99.90;;;;;;5108450;27;20150;-67
2022/10/25 05:12:39;;;;;;;16.85;7.38;;;12.70;99.90;;;;;;5133501;27;20368;-66
2022/10/25 05:15:05;;;;;;;15.88;6.60;;;12.70;99.90;;;;;;5108377;27;20047;-67
2022/10/25 05:17:31;;;;;;;19.25;7.68;;;12.80;99.90;;;;;;5106676;27;20039;-67
2022/10/25 05:19:57;;;;;;;13.35;7.28;;;12.80;99.90;;;;;;5133186;27;20046;-65
2022/10/25 05:22:23;;;;;;;16.08;7.25;;;12.80;99.90;;;;;;5133357;27;20027;-65
2022/10/25 05:24:49;;;;;;;16.13;7.60;;;12.70;99.90;;;;;;5133511;27;20096;-66
2022/10/25 05:27:15;;;;;;;17.48;8.00;;;12.70;99.90;;;;;;5133667;27;20035;-66
2022/10/25 05:29:40;;;;;;;15.35;7.88;;;12.70;99.90;;;;;;5106813;28;20024;-65
2022/10/25 05:32:06;;;;;;;16.70;7.68;;;12.60;99.90;;;;;;5130965;27;20070;-65
2022/10/25 05:34:31;;;;;;;16.83;8.82;;;12.60;99.90;;;;;;5129923;27;20074;-65
2022/10/25 05:36:57;;;;;;;18.33;8.73;;;12.60;99.90;;;;;;5131273;27;20039;-64
2022/10/25 05:39:23;;;;;;;17.75;9.18;;;12.50;99.90;;;;;;5152648;27;20039;-65
2022/10/25 05:41:49;;;;;;;19.05;8.80;;;12.50;99.90;;;;;;5152747;27;20059;-65
2022/10/25 05:44:15;;;;;;;19.33;9.20;;;12.50;99.90;;;;;;5134843;27;20065;-63
2022/10/25 05:46:41;;;;;;;20.95;9.65;;;12.50;99.90;;;;;;5128621;27;20109;-65
2022/10/25 05:49:07;;;;;;;20.55;9.40;;;12.50;99.90;;;;;;5149351;27;20045;-65
2022/10/25 05:51:33;;;;;;;23.15;9.50;;;12.50;99.90;;;;;;5146370;27;20039;-65
2022/10/25 05:54:00;;;;;;;24.15;9.32;;;12.50;99.90;;;;;;5134402;27;20042;-65
2022/10/25 05:56:28;;;;;;;21.58;10.13;;;12.50;99.90;;;;;;5124201;27;20042;-65
2022/10/25 05:58:55;;;;;;;20.02;10.18;;;12.50;99.90;;;;;;5132927;27;20164;-65
2022/10/25 06:01:22;;;;;;;21.48;9.93;;;12.50;99.90;;;;;;5132523;27;20049;-67
2022/10/25 06:03:52;;;;;;;23.30;10.52;;;12.60;99.90;;;;;;5132933;27;20054;-66
2022/10/25 06:06:19;;;;;;;19.90;10.45;;;12.70;99.90;;;;;;5122425;27;20196;-65
2022/10/25 06:08:45;;;;;;;22.70;10.15;;;12.70;99.90;;;;;;5106218;28;20406;-66
2022/10/25 06:11:17;;;;;;;23.98;10.48;;;12.80;99.90;;;;;;5096132;27;20052;-65
2022/10/25 06:13:43;;;;;;;21.30;9.98;;;12.80;99.90;;;;;;5132267;27;20072;-65
2022/10/25 06:16:13;;;;;;;21.60;9.80;;;12.80;99.90;;;;;;5120346;27;20050;-65
2022/10/25 06:18:39;;;;;;;22.77;10.02;;;12.80;99.90;;;;;;5132357;27;20079;-66
2022/10/25 06:21:10;;;;;;;24.02;10.00;;;12.80;99.90;;;;;;5132272;27;20027;-67
2022/10/25 06:23:36;;;;;;;20.95;9.85;;;12.90;99.90;;;;;;5131829;27;20503;-66
2022/10/25 06:26:05;;;;;;;21.10;10.35;;;12.90;99.90;;;;;;5131962;27;20111;-65
2022/10/25 06:28:31;;;;;;;23.95;11.18;;;12.90;99.90;;;;;;5132071;27;20034;-66
2022/10/25 06:31:17;;;;;;;23.77;10.73;;;12.90;99.90;;;;;;5131885;27;20050;-66
2022/10/25 06:33:43;;;;;;;24.95;10.45;;;12.90;99.90;;;;;;5132004;27;20045;-65
2022/10/25 06:36:13;;;;;;;24.48;11.07;;;12.90;99.90;;;;;;5130860;27;20452;-65
2022/10/25 06:38:39;;;;;;;25.55;11.18;;;12.90;99.90;;;;;;5145845;27;20035;-65
2022/10/25 06:41:08;;;;;;;22.95;10.82;;;12.90;99.90;;;;;;5117028;27;20363;-67
2022/10/25 06:43:34;;;;;;;24.42;11.05;;;12.90;99.90;;;;;;5152269;27;20400;-65
2022/10/25 06:46:13;;;;;;;21.30;10.90;;;13.00;99.90;;;;;;5131047;27;20044;-65
2022/10/25 06:48:39;;;;;;;20.30;10.30;;;13.00;99.90;;;;;;5140174;27;20053;-67
2022/10/25 06:51:10;;;;;;;20.40;11.18;;;13.00;99.90;;;;;;5117478;27;20115;-65
2022/10/25 06:53:36;;;;;;;22.80;10.70;;;13.00;99.90;;;;;;5152402;27;20042;-65
2022/10/25 06:56:04;;;;;;;26.00;11.48;;;12.90;99.90;;;;;;5135171;27;20040;-65
2022/10/25 06:58:31;;;;;;;23.95;12.25;;;12.90;99.90;;;;;;5152437;27;20034;-66
2022/10/25 07:01:01;;;;;;;24.17;11.55;;;12.90;99.90;;;;;;5152122;27;20133;-66
2022/10/25 07:03:30;;;;;;;25.77;11.43;;;12.90;99.90;;;;;;5152409;27;20427;-68
2022/10/25 07:06:06;;;;;;;23.60;11.23;;;13.00;99.90;;;;;;5131845;27;20083;-66
2022/10/25 07:08:33;;;;;;;21.83;11.27;;;13.00;99.90;;;;;;5152195;27;20054;-66
2022/10/25 07:10:59;;;;;;;24.90;11.82;;;13.00;99.90;;;;;;5151722;27;20145;-66
2022/10/25 07:13:25;;;;;;;21.35;11.32;;;13.00;99.90;;;;;;5151727;27;20134;-67
2022/10/25 07:15:51;;;;;;;24.13;12.27;;;13.00;99.90;;;;;;5133156;27;20093;-66
2022/10/25 07:18:17;;;;;;;27.83;12.35;;;13.10;99.90;;;;;;5147655;27;20035;-65
2022/10/25 07:20:47;;;;;;;26.38;12.90;;;13.10;99.90;;;;;;5151634;27;20060;-68
2022/10/25 07:23:16;;;;;;;25.17;13.13;;;13.10;99.90;;;;;;5151565;27;20503;-66
2022/10/25 07:25:42;;;;;;;30.88;14.38;;;13.10;99.90;;;;;;5135833;27;20035;-66
2022/10/25 07:28:08;;;;;;;25.80;12.75;;;13.10;99.90;;;;;;5108486;27;20043;-65
2022/10/25 07:30:34;;;;;;;22.73;12.60;;;13.20;99.90;;;;;;5151725;27;20123;-66
2022/10/25 07:33:02;;;;;;;23.02;12.60;;;13.10;99.90;;;;;;5138165;27;20038;-67
2022/10/25 07:35:27;;;;;;;25.42;13.48;;;13.20;99.90;;;;;;5138663;27;20078;-65
2022/10/25 07:37:53;;;;;;;23.85;12.43;;;13.30;99.90;;;;;;5133562;27;20079;-65
2022/10/25 07:40:18;;;;;;;21.92;12.23;;;13.40;99.90;;;;;;5140264;27;20035;-65
2022/10/25 07:42:44;;;;;;;25.13;12.88;;;13.50;99.90;;;;;;5136122;27;20034;-65
2022/10/25 07:45:09;;;;;;;23.10;12.75;;;13.50;99.90;;;;;;5145245;27;20127;-66
2022/10/25 07:47:35;;;;;;;20.13;11.98;;;13.70;99.90;;;;;;5112826;27;20312;-66
2022/10/25 07:50:00;;;;;;;21.40;12.60;;;13.60;99.90;;;;;;5151386;27;20034;-66
2022/10/25 07:52:26;;;;;;;23.27;13.30;;;13.80;99.90;;;;;;5133005;27;20047;-65
2022/10/25 07:54:52;;;;;;;22.98;12.57;;;13.80;99.90;;;;;;5150917;27;20113;-66
2022/10/25 07:57:17;;;;;;;21.70;12.32;;;13.80;99.90;;;;;;5148718;27;20091;-66
2022/10/25 07:59:43;;;;;;;23.42;13.18;;;13.90;99.90;;;;;;5155623;27;20034;-66
2022/10/25 08:02:11;;;;;;;18.20;11.95;;;13.90;99.90;;;;;;5156315;27;20027;-65
2022/10/25 08:04:36;;;;;;;19.80;11.73;;;13.90;99.90;;;;;;5156004;27;20066;-65
2022/10/25 08:07:02;;;;;;;21.92;11.93;;;13.90;99.90;;;;;;5109022;27;20123;-66
2022/10/25 08:09:28;;;;;;;22.33;11.82;;;13.90;99.90;;;;;;5132135;27;20443;-65
2022/10/25 08:11:53;;;;;;;18.33;11.50;;;14.00;99.90;;;;;;5155358;27;20099;-65
2022/10/25 08:14:19;;;;;;;21.88;11.65;;;14.10;99.90;;;;;;5155206;27;20064;-65
2022/10/25 08:16:44;;;;;;;18.52;11.23;;;14.10;99.90;;;;;;5132830;27;20119;-65
2022/10/25 08:19:10;;;;;;;21.48;11.07;;;14.20;99.90;;;;;;5136964;27;20129;-65
2022/10/25 08:21:36;;;;;;;24.67;11.73;;;14.20;99.90;;;;;;5154925;27;20046;-68
2022/10/25 08:24:01;;;;;;;23.70;11.35;;;14.20;99.90;;;;;;5155504;27;20039;-65
2022/10/25 08:26:28;;;;;;;20.48;11.23;;;14.20;99.90;;;;;;5129472;27;20071;-65
2022/10/25 08:28:53;;;;;;;19.45;10.82;;;14.30;99.90;;;;;;5155475;27;20043;-66
2022/10/25 08:31:19;;;;;;;19.83;10.23;;;14.30;99.90;;;;;;5154915;27;20095;-65
2022/10/25 08:33:45;;;;;;;17.02;10.27;;;14.30;99.90;;;;;;5124653;27;20088;-65
2022/10/25 08:36:11;;;;;;;18.30;10.77;;;14.40;99.90;;;;;;5142703;27;20031;-65
2022/10/25 08:38:36;;;;;;;18.27;10.63;;;14.40;99.90;;;;;;5152158;27;20050;-64
2022/10/25 08:41:23;;;;;;;19.75;10.20;;;14.50;99.90;;;;;;5153525;27;20039;-65
2022/10/25 08:44:15;;;;;;;20.90;10.38;;;14.60;99.90;;;;;;5155172;27;20038;-65
2022/10/25 08:47:21;;;;;;;19.20;9.98;;;14.60;99.90;;;;;;5143102;27;20469;-65
2022/10/25 08:50:12;;;;;;;19.00;9.98;;;14.60;99.90;;;;;;5127736;27;20078;-65
2022/10/25 08:52:41;;;;;;;18.80;9.88;;;14.60;99.90;;;;;;5154793;27;20043;-66
2022/10/25 08:55:16;;;;;;;20.92;10.02;;;14.60;99.90;;;;;;5149833;27;20435;-66
2022/10/25 08:57:45;;;;;;;17.55;10.00;;;14.70;99.90;;;;;;5146903;27;20444;-65
2022/10/25 09:00:19;;;;;;;18.40;10.05;;;14.80;99.90;;;;;;5144834;27;20439;-65
2022/10/25 09:02:51;;;;;;;16.08;8.90;;;14.90;99.90;;;;;;5148486;27;20380;-66
2022/10/25 09:05:50;;;;;;;16.50;8.63;;;15.00;99.90;;;;;;5112160;27;20067;-65
2022/10/25 09:08:51;;;;;;;18.10;8.68;;;15.00;99.90;;;;;;5153168;27;20114;-66
2022/10/25 09:11:52;;;;;;;16.92;9.35;;;15.00;99.90;;;;;;5129614;27;20082;-66
2022/10/25 09:14:39;;;;;;;16.63;8.15;;;15.00;99.90;;;;;;5134030;27;20150;-65
2022/10/25 09:17:20;;;;;;;13.50;7.90;;;15.10;99.90;;;;;;5130210;27;20061;-66
2022/10/25 09:19:58;;;;;;;15.82;8.50;;;15.10;99.90;;;;;;5154259;27;20057;-65
2022/10/25 09:22:27;;;;;;;14.15;8.05;;;15.20;99.90;;;;;;5154556;27;20067;-65
2022/10/25 09:25:01;;;;;;;17.40;8.55;;;15.20;99.90;;;;;;5139056;27;20050;-65
2022/10/25 09:27:48;;;;;;;16.85;8.45;;;15.20;99.90;;;;;;5132303;27;20034;-65
2022/10/25 09:30:14;;;;;;;15.73;8.05;;;15.20;99.90;;;;;;5153995;27;20130;-65
2022/10/25 09:32:44;;;;;;;14.32;7.00;;;15.20;99.90;;;;;;5154274;27;20126;-65
2022/10/25 09:35:20;;;;;;;15.35;7.80;;;15.20;99.90;;;;;;5149129;27;20207;-65
2022/10/25 09:37:50;;;;;;;16.80;8.35;;;15.30;99.90;;;;;;5111254;27;20043;-66
2022/10/25 09:40:20;;;;;;;15.75;7.55;;;15.20;99.90;;;;;;5153859;27;20111;-65
2022/10/25 09:42:54;;;;;;;12.35;6.88;;;15.20;99.90;;;;;;5153796;27;20026;-66
2022/10/25 09:45:29;;;;;;;;;;;15.20;99.90;;;;;;5147020;27;20135;-65
2022/10/25 09:48:28;;;;;;;15.32;6.78;;;15.20;99.90;;;;;;5153445;27;19933;-66
2022/10/25 09:51:09;;;;;;;12.48;6.68;;;15.20;99.90;;;;;;5130620;27;20054;-65
2022/10/25 09:53:39;;;;;;;12.27;6.40;;;15.20;99.90;;;;;;5153960;27;20050;-65
2022/10/25 09:56:05;;;;;;;14.35;6.90;;;15.20;99.90;;;;;;5121110;27;20053;-66
2022/10/25 09:58:38;;;;;;;16.05;6.82;;;15.30;99.90;;;;;;5153680;27;20340;-67
2022/10/25 10:01:14;;;;;;;13.27;6.35;;;15.40;99.90;;;;;;5153231;27;20047;-66
2022/10/25 10:03:40;;;;;;;12.73;6.45;;;15.50;99.90;;;;;;5153688;27;20031;-66
2022/10/25 10:06:17;;;;;;;13.00;6.15;;;15.50;99.90;;;;;;5134696;27;20118;-65
2022/10/25 10:08:51;;;;;;;14.38;6.75;;;15.40;99.90;;;;;;5142187;27;20038;-66
2022/10/25 10:11:18;;;;;;;13.30;6.80;;;15.40;99.90;;;;;;5153203;27;20039;-66
2022/10/25 10:13:55;;;;;;;13.20;6.35;;;15.40;99.90;;;;;;5153065;27;20126;-64
2022/10/25 10:16:30;;;;;;;9.77;5.78;;;15.40;99.90;;;;;;5132556;27;20404;-66
2022/10/25 10:19:29;;;;;;;12.50;7.00;;;15.50;99.90;;;;;;5143526;27;20039;-65
2022/10/25 10:21:58;;;;;;;12.75;6.55;;;15.60;99.90;;;;;;5147071;27;20035;-63
2022/10/25 10:24:36;;;;;;;11.48;6.40;;;15.60;99.90;;;;;;5144509;27;20035;-64
2022/10/25 10:27:08;;;;;;;10.23;6.25;;;15.60;99.90;;;;;;5128888;27;20486;-64
2022/10/25 10:29:37;;;;;;;11.93;6.20;;;15.60;99.90;;;;;;5152833;27;20046;-64
2022/10/25 10:32:34;;;;;;;10.38;6.38;;;15.60;99.90;;;;;;5134636;27;20103;-63
2022/10/25 10:35:03;;;;;;;15.40;6.82;;;15.50;99.90;;;;;;5151455;27;20048;-64
2022/10/25 10:37:31;;;;;;;13.00;6.70;;;15.50;99.90;;;;;;5139804;27;20039;-64
2022/10/25 10:40:22;;;;;;;12.63;5.88;;;15.50;99.90;;;;;;5144608;27;20042;-64
2022/10/25 10:42:48;;;;;;;15.13;6.57;;;15.60;99.90;;;;;;5152431;27;20470;-64
2022/10/25 10:45:18;;;;;;;11.43;6.13;;;15.60;99.90;;;;;;5148061;27;20031;-65
2022/10/25 10:47:54;;;;;;;12.15;6.45;;;15.60;99.90;;;;;;5149020;27;20064;-65
2022/10/25 10:50:27;;;;;;;12.07;6.05;;;15.60;99.90;;;;;;5140292;27;20059;-66
2022/10/25 10:53:02;;;;;;;12.90;5.90;;;15.60;99.90;;;;;;5132584;27;20122;-65
2022/10/25 10:55:32;;;;;;;10.40;5.82;;;15.60;99.90;;;;;;5125221;27;20047;-70
2022/10/25 10:58:04;;;;;;;12.93;5.75;;;15.60;99.90;;;;;;5149880;27;20045;-66
2022/10/25 11:00:31;;;;;;;13.85;5.95;;;15.60;99.90;;;;;;5152078;27;20072;-66
2022/10/25 11:02:57;;;;;;;11.57;5.93;;;15.60;99.90;;;;;;5152608;27;20145;-65
2022/10/25 11:05:26;;;;;;;15.50;5.85;;;15.70;99.90;;;;;;5145341;27;20130;-65
2022/10/25 11:07:56;;;;;;;8.95;5.32;;;15.70;99.90;;;;;;5143991;27;20053;-64
2022/10/25 11:10:26;;;;;;;11.10;5.20;;;15.80;99.90;;;;;;5152031;27;20519;-64
2022/10/25 11:13:12;;;;;;;12.82;5.00;;;15.90;99.90;;;;;;5151637;27;20076;-64
2022/10/25 11:15:59;;;;;;;11.68;5.45;;;15.90;99.90;;;;;;5140143;27;20130;-64
2022/10/25 11:18:52;;;;;;;13.15;4.25;;;15.90;99.90;;;;;;5149966;27;20047;-65
2022/10/25 11:21:48;;;;;;;10.57;4.93;;;16.00;99.90;;;;;;5138440;27;20070;-64
2022/10/25 11:24:37;;;;;;;11.93;4.88;;;16.00;99.90;;;;;;5152120;27;20042;-65
2022/10/25 11:27:15;;;;;;;9.32;4.65;;;16.00;99.90;;;;;;5129107;27;20107;-65
2022/10/25 11:29:58;;;;;;;9.38;4.20;;;16.10;99.90;;;;;;5150855;27;20376;-64
2022/10/25 11:32:55;;;;;;;8.70;3.65;;;16.10;99.90;;;;;;5127553;27;20038;-65
2022/10/25 11:35:40;;;;;;;11.00;4.32;;;16.20;99.90;;;;;;5146073;27;20492;-65
2022/10/25 11:38:37;;;;;;;13.18;4.40;;;16.20;99.90;;;;;;5137389;27;20037;-65
2022/10/25 11:41:16;;;;;;;17.67;4.10;;;16.30;99.90;;;;;;5151253;27;20042;-64
2022/10/25 11:43:50;;;;;;;8.40;3.70;;;16.30;99.90;;;;;;5152070;27;20044;-65
2022/10/25 11:47:05;;;;;;;9.60;3.80;;;16.30;99.90;;;;;;5142902;27;20507;-66
2022/10/25 11:49:37;;;;;;;;;;;16.30;99.90;;;;;;5131181;27;20625;-65
2022/10/25 11:52:42;;;;;;;9.77;3.63;;;16.40;99.90;;;;;;5152154;27;19923;-65
2022/10/25 11:55:36;;;;;;;10.85;3.45;;;16.50;99.90;;;;;;5149937;27;20043;-65
2022/10/25 11:58:38;;;;;;;7.82;3.83;;;16.50;99.90;;;;;;5149935;27;20062;-65
2022/10/25 12:01:33;;;;;;;6.40;3.20;;;16.50;99.90;;;;;;5133147;27;20057;-66
2022/10/25 12:04:13;;;;;;;10.48;3.83;;;16.50;99.90;;;;;;5151414;27;20095;-65
2022/10/25 12:07:02;;;;;;;10.45;4.03;;;16.50;99.90;;;;;;5135986;27;20045;-66
2022/10/25 12:09:51;;;;;;;11.38;4.25;;;16.50;99.90;;;;;;5151014;27;20035;-66
2022/10/25 12:12:20;;;;;;;11.65;4.07;;;16.60;99.90;;;;;;5151189;27;20061;-64
2022/10/25 12:14:51;;;;;;;9.10;3.92;;;16.50;99.90;;;;;;5148604;27;20290;-65
2022/10/25 12:17:29;;;;;;;11.60;3.80;;;16.60;99.90;;;;;;5131124;27;20126;-64
2022/10/25 12:20:01;;;;;;;12.32;4.32;;;16.60;99.90;;;;;;5151029;27;20026;-64
2022/10/25 12:22:40;;;;;;;8.15;3.55;;;16.60;99.90;;;;;;5151235;27;20039;-64
2022/10/25 12:25:19;;;;;;;13.50;4.43;;;16.70;99.90;;;;;;5150054;27;20083;-64
2022/10/25 12:27:47;;;;;;;8.90;4.03;;;16.80;99.90;;;;;;5134111;27;20039;-64
2022/10/25 12:30:14;;;;;;;11.20;3.75;;;16.80;99.90;;;;;;5150748;27;20179;-65
2022/10/25 12:32:50;;;;;;;8.48;4.28;;;16.80;99.90;;;;;;5151364;27;20150;-64
2022/10/25 12:35:28;;;;;;;9.90;3.80;;;16.80;99.90;;;;;;5147378;27;20110;-64
2022/10/25 12:38:17;;;;;;;9.02;3.90;;;16.90;99.90;;;;;;5132674;27;20459;-64
2022/10/25 12:40:46;;;;;;;10.70;3.58;;;16.90;99.90;;;;;;5150623;27;20355;-64
2022/10/25 12:43:12;;;;;;;9.32;3.58;;;17.00;99.90;;;;;;5154834;27;20086;-65
2022/10/25 12:45:54;;;;;;;10.20;3.38;;;17.10;99.90;;;;;;5146839;27;20147;-64
2022/10/25 12:49:00;;;;;;;10.02;3.63;;;17.20;99.90;;;;;;5145407;27;20058;-65
2022/10/25 12:51:56;;;;;;;7.72;3.55;;;17.20;99.90;;;;;;5127110;27;20050;-65
2022/10/25 12:54:31;;;;;;;7.82;2.95;;;17.20;99.90;;;;;;5154546;27;20054;-66
2022/10/25 12:57:09;;;;;;;8.85;3.20;;;17.20;99.90;;;;;;5143340;27;20091;-65
2022/10/25 13:00:04;;;;;;;9.63;3.65;;;17.20;99.90;;;;;;5154617;27;20122;-65